sensor_id;sensor_type;location;lat;lon;timestamp;temperature;humidity
53152;DHT22;39234;53.158;6.322;2022-09-24T00:01:18;15.10;99.90
53152;DHT22;39234;53.158;6.322;2022-09-24T00:03:49;12.90;99.90
53152;DHT22;39234;53.158;6.322;2022-09-24T00:06:15;13.00;99.90
53152;DHT22;39234;53.158;6.322;2022-09-24T00:08:44;12.80;99.90
53152;DHT22;39234;53.158;6.322;2022-09-24T00:11:11;12.70;99.90
53152;DHT22;39234;53.158;6.322;2022-09-24T00:13:38;12.60;99.90
53152;DHT22;39234;53.158;6.322;2022-09-24T00:16:07;12.80;99.90
53152;DHT22;39234;53.158;6.322;2022-09-24T00:18:33;12.60;99.90
53152;DHT22;39234;53.158;6.322;2022-09-24T00:20:59;12.70;99.90
53152;DHT22;39234;53.158;6.322;2022-09-24T00:23:26;12.80;99.90
53152;DHT22;39234;53.158;6.322;2022-09-24T00:25:52;12.90;99.90
53152;DHT22;39234;53.158;6.322;2022-09-24T00:28:36;12.90;99.90
53152;DHT22;39234;53.158;6.322;2022-09-24T00:31:06;12.80;99.90
53152;DHT22;39234;53.158;6.322;2022-09-24T00:33:35;12.70;99.90
53152;DHT22;39234;53.158;6.322;2022-09-24T00:36:03;12.80;99.90
53152;DHT22;39234;53.158;6.322;2022-09-24T00:38:31;12.70;99.90
53152;DHT22;39234;53.158;6.322;2022-09-24T00:40:57;13.70;99.90
53152;DHT22;39234;53.158;6.322;2022-09-24T00:43:26;12.80;99.90
53152;DHT22;39234;53.158;6.322;2022-09-24T00:46:02;12.90;99.90
53152;DHT22;39234;53.158;6.322;2022-09-24T00:48:30;12.70;99.90
53152;DHT22;39234;53.158;6.322;2022-09-24T00:51:00;12.90;99.90
53152;DHT22;39234;53.158;6.322;2022-09-24T00:53:27;12.90;99.90
53152;DHT22;39234;53.158;6.322;2022-09-24T00:55:57;12.90;99.90
53152;DHT22;39234;53.158;6.322;2022-09-24T00:58:24;12.90;99.90
53152;DHT22;39234;53.158;6.322;2022-09-24T01:00:55;12.90;99.90
53152;DHT22;39234;53.158;6.322;2022-09-24T01:03:23;12.90;99.90
53152;DHT22;39234;53.158;6.322;2022-09-24T01:05:51;13.10;99.90
53152;DHT22;39234;53.158;6.322;2022-09-24T01:08:18;13.00;99.90
53152;DHT22;39234;53.158;6.322;2022-09-24T01:11:52;13.00;99.90
53152;DHT22;39234;53.158;6.322;2022-09-24T01:30:55;13.10;99.90
53152;DHT22;39234;53.158;6.322;2022-09-24T01:33:27;13.00;99.90
53152;DHT22;39234;53.158;6.322;2022-09-24T01:35:58;13.20;99.90
53152;DHT22;39234;53.158;6.322;2022-09-24T01:38:28;13.80;99.90
53152;DHT22;39234;53.158;6.322;2022-09-24T01:40:58;13.10;99.90
53152;DHT22;39234;53.158;6.322;2022-09-24T01:43:26;13.00;99.90
53152;DHT22;39234;53.158;6.322;2022-09-24T01:45:55;13.10;99.90
53152;DHT22;39234;53.158;6.322;2022-09-24T01:48:26;13.10;99.90
53152;DHT22;39234;53.158;6.322;2022-09-24T01:51:13;13.20;99.90
53152;DHT22;39234;53.158;6.322;2022-09-24T01:56:21;13.60;99.90
53152;DHT22;39234;53.158;6.322;2022-09-24T01:58:55;13.20;99.90
53152;DHT22;39234;53.158;6.322;2022-09-24T02:01:31;13.20;99.90
53152;DHT22;39234;53.158;6.322;2022-09-24T02:04:05;13.10;99.90
53152;DHT22;39234;53.158;6.322;2022-09-24T02:06:37;13.10;99.90
53152;DHT22;39234;53.158;6.322;2022-09-24T02:09:04;13.10;99.90
53152;DHT22;39234;53.158;6.322;2022-09-24T02:11:32;13.00;99.90
53152;DHT22;39234;53.158;6.322;2022-09-24T02:14:07;13.10;99.90
53152;DHT22;39234;53.158;6.322;2022-09-24T02:16:45;13.10;99.90
53152;DHT22;39234;53.158;6.322;2022-09-24T02:19:15;13.20;99.90
53152;DHT22;39234;53.158;6.322;2022-09-24T02:21:43;12.90;99.90
53152;DHT22;39234;53.158;6.322;2022-09-24T02:24:15;13.70;99.90
53152;DHT22;39234;53.158;6.322;2022-09-24T02:26:42;13.10;99.90
53152;DHT22;39234;53.158;6.322;2022-09-24T02:29:07;13.10;99.90
53152;DHT22;39234;53.158;6.322;2022-09-24T02:31:45;13.00;99.90
53152;DHT22;39234;53.158;6.322;2022-09-24T02:34:16;13.20;99.90
53152;DHT22;39234;53.158;6.322;2022-09-24T02:36:51;13.20;99.90
53152;DHT22;39234;53.158;6.322;2022-09-24T02:39:18;13.10;99.90
53152;DHT22;39234;53.158;6.322;2022-09-24T02:41:45;12.90;99.90
53152;DHT22;39234;53.158;6.322;2022-09-24T02:44:14;13.10;99.90
53152;DHT22;39234;53.158;6.322;2022-09-24T02:46:41;13.30;99.90
53152;DHT22;39234;53.158;6.322;2022-09-24T02:49:08;13.10;99.90
53152;DHT22;39234;53.158;6.322;2022-09-24T02:51:35;13.10;99.90
53152;DHT22;39234;53.158;6.322;2022-09-24T02:54:01;12.90;99.90
53152;DHT22;39234;53.158;6.322;2022-09-24T02:56:28;13.10;99.90
53152;DHT22;39234;53.158;6.322;2022-09-24T02:58:54;14.40;99.90
53152;DHT22;39234;53.158;6.322;2022-09-24T03:01:19;13.20;99.90
53152;DHT22;39234;53.158;6.322;2022-09-24T03:03:47;13.70;99.90
53152;DHT22;39234;53.158;6.322;2022-09-24T03:06:13;15.10;99.90
53152;DHT22;39234;53.158;6.322;2022-09-24T03:08:42;13.20;99.90
53152;DHT22;39234;53.158;6.322;2022-09-24T03:11:09;13.10;99.90
53152;DHT22;39234;53.158;6.322;2022-09-24T03:13:38;13.00;99.90
53152;DHT22;39234;53.158;6.322;2022-09-24T03:16:05;13.00;99.90
53152;DHT22;39234;53.158;6.322;2022-09-24T03:18:31;13.10;99.90
53152;DHT22;39234;53.158;6.322;2022-09-24T03:21:02;13.10;99.90
53152;DHT22;39234;53.158;6.322;2022-09-24T03:23:28;13.10;99.90
53152;DHT22;39234;53.158;6.322;2022-09-24T03:25:54;12.90;99.90
53152;DHT22;39234;53.158;6.322;2022-09-24T03:28:20;13.10;99.90
53152;DHT22;39234;53.158;6.322;2022-09-24T03:30:46;13.20;99.90
53152;DHT22;39234;53.158;6.322;2022-09-24T03:36:10;14.40;99.90
53152;DHT22;39234;53.158;6.322;2022-09-24T03:38:38;13.10;99.90
53152;DHT22;39234;53.158;6.322;2022-09-24T03:41:05;13.00;99.90
53152;DHT22;39234;53.158;6.322;2022-09-24T03:43:31;13.20;99.90
53152;DHT22;39234;53.158;6.322;2022-09-24T03:45:58;13.10;99.90
53152;DHT22;39234;53.158;6.322;2022-09-24T03:48:25;13.10;99.90
53152;DHT22;39234;53.158;6.322;2022-09-24T03:50:51;13.10;99.90
53152;DHT22;39234;53.158;6.322;2022-09-24T03:53:17;13.00;99.90
53152;DHT22;39234;53.158;6.322;2022-09-24T03:55:51;13.10;99.90
53152;DHT22;39234;53.158;6.322;2022-09-24T03:58:17;13.10;99.90
53152;DHT22;39234;53.158;6.322;2022-09-24T04:00:43;13.20;99.90
53152;DHT22;39234;53.158;6.322;2022-09-24T04:03:09;13.10;99.90
53152;DHT22;39234;53.158;6.322;2022-09-24T04:05:35;13.30;99.90
53152;DHT22;39234;53.158;6.322;2022-09-24T04:08:02;13.00;99.90
53152;DHT22;39234;53.158;6.322;2022-09-24T04:10:28;13.10;99.90
53152;DHT22;39234;53.158;6.322;2022-09-24T04:12:54;13.20;99.90
53152;DHT22;39234;53.158;6.322;2022-09-24T04:15:20;13.20;99.90
53152;DHT22;39234;53.158;6.322;2022-09-24T04:17:53;13.00;99.90
53152;DHT22;39234;53.158;6.322;2022-09-24T04:20:20;13.20;99.90
53152;DHT22;39234;53.158;6.322;2022-09-24T04:22:51;13.10;99.90
53152;DHT22;39234;53.158;6.322;2022-09-24T04:25:17;13.10;99.90
53152;DHT22;39234;53.158;6.322;2022-09-24T04:27:46;13.20;99.90
53152;DHT22;39234;53.158;6.322;2022-09-24T04:30:13;13.10;99.90
53152;DHT22;39234;53.158;6.322;2022-09-24T04:32:40;13.20;99.90
53152;DHT22;39234;53.158;6.322;2022-09-24T04:35:07;13.20;99.90
53152;DHT22;39234;53.158;6.322;2022-09-24T04:37:33;13.20;99.90
53152;DHT22;39234;53.158;6.322;2022-09-24T04:39:58;13.00;99.90
53152;DHT22;39234;53.158;6.322;2022-09-24T04:42:24;13.00;99.90
53152;DHT22;39234;53.158;6.322;2022-09-24T04:44:50;14.60;99.90
53152;DHT22;39234;53.158;6.322;2022-09-24T04:47:16;13.10;99.90
53152;DHT22;39234;53.158;6.322;2022-09-24T04:49:42;13.20;99.90
53152;DHT22;39234;53.158;6.322;2022-09-24T04:52:11;13.30;99.90
53152;DHT22;39234;53.158;6.322;2022-09-24T04:54:40;13.20;99.90
53152;DHT22;39234;53.158;6.322;2022-09-24T04:57:12;15.40;99.90
53152;DHT22;39234;53.158;6.322;2022-09-24T04:59:39;13.30;99.90
53152;DHT22;39234;53.158;6.322;2022-09-24T05:02:04;13.10;99.90
53152;DHT22;39234;53.158;6.322;2022-09-24T05:04:34;13.20;99.90
53152;DHT22;39234;53.158;6.322;2022-09-24T05:07:00;13.20;99.90
53152;DHT22;39234;53.158;6.322;2022-09-24T05:09:25;13.20;99.90
53152;DHT22;39234;53.158;6.322;2022-09-24T05:11:52;13.40;99.90
53152;DHT22;39234;53.158;6.322;2022-09-24T05:14:17;13.10;99.90
53152;DHT22;39234;53.158;6.322;2022-09-24T05:16:43;13.00;99.90
53152;DHT22;39234;53.158;6.322;2022-09-24T05:19:09;13.30;99.90
53152;DHT22;39234;53.158;6.322;2022-09-24T05:21:34;13.20;99.90
53152;DHT22;39234;53.158;6.322;2022-09-24T05:24:00;13.00;99.90
53152;DHT22;39234;53.158;6.322;2022-09-24T05:26:26;13.20;99.90
53152;DHT22;39234;53.158;6.322;2022-09-24T05:29:10;13.10;99.90
53152;DHT22;39234;53.158;6.322;2022-09-24T05:31:36;13.10;99.90
53152;DHT22;39234;53.158;6.322;2022-09-24T05:34:02;13.20;99.90
53152;DHT22;39234;53.158;6.322;2022-09-24T05:36:28;12.90;99.90
53152;DHT22;39234;53.158;6.322;2022-09-24T05:38:54;12.90;99.90
53152;DHT22;39234;53.158;6.322;2022-09-24T05:41:20;12.80;99.90
53152;DHT22;39234;53.158;6.322;2022-09-24T05:43:46;13.00;99.90
53152;DHT22;39234;53.158;6.322;2022-09-24T05:46:12;13.40;99.90
53152;DHT22;39234;53.158;6.322;2022-09-24T05:48:38;13.10;99.90
53152;DHT22;39234;53.158;6.322;2022-09-24T05:51:03;13.10;99.90
53152;DHT22;39234;53.158;6.322;2022-09-24T05:53:30;13.10;99.90
53152;DHT22;39234;53.158;6.322;2022-09-24T05:55:56;13.20;99.90
53152;DHT22;39234;53.158;6.322;2022-09-24T05:58:23;13.10;99.90
53152;DHT22;39234;53.158;6.322;2022-09-24T06:00:50;13.00;99.90
53152;DHT22;39234;53.158;6.322;2022-09-24T06:03:16;13.10;99.90
53152;DHT22;39234;53.158;6.322;2022-09-24T06:05:47;13.00;99.90
53152;DHT22;39234;53.158;6.322;2022-09-24T06:08:14;13.10;99.90
53152;DHT22;39234;53.158;6.322;2022-09-24T06:10:44;13.10;99.90
53152;DHT22;39234;53.158;6.322;2022-09-24T06:13:11;13.20;99.90
53152;DHT22;39234;53.158;6.322;2022-09-24T06:15:41;13.10;99.90
53152;DHT22;39234;53.158;6.322;2022-09-24T06:18:08;13.20;99.90
53152;DHT22;39234;53.158;6.322;2022-09-24T06:20:34;13.10;99.90
53152;DHT22;39234;53.158;6.322;2022-09-24T06:23:00;13.10;99.90
53152;DHT22;39234;53.158;6.322;2022-09-24T06:25:27;13.10;99.90
53152;DHT22;39234;53.158;6.322;2022-09-24T06:27:54;13.20;99.90
53152;DHT22;39234;53.158;6.322;2022-09-24T06:30:28;13.10;99.90
53152;DHT22;39234;53.158;6.322;2022-09-24T06:32:54;11.50;99.90
53152;DHT22;39234;53.158;6.322;2022-09-24T06:35:20;13.20;99.90
53152;DHT22;39234;53.158;6.322;2022-09-24T06:37:46;13.00;99.90
53152;DHT22;39234;53.158;6.322;2022-09-24T06:40:14;13.20;99.90
53152;DHT22;39234;53.158;6.322;2022-09-24T06:42:40;14.90;99.90
53152;DHT22;39234;53.158;6.322;2022-09-24T06:45:06;13.20;99.90
53152;DHT22;39234;53.158;6.322;2022-09-24T06:47:31;13.20;99.90
53152;DHT22;39234;53.158;6.322;2022-09-24T06:49:57;13.30;99.90
53152;DHT22;39234;53.158;6.322;2022-09-24T06:52:23;14.70;99.90
53152;DHT22;39234;53.158;6.322;2022-09-24T06:54:48;13.30;99.90
53152;DHT22;39234;53.158;6.322;2022-09-24T06:57:14;13.40;99.90
53152;DHT22;39234;53.158;6.322;2022-09-24T06:59:40;13.30;99.90
53152;DHT22;39234;53.158;6.322;2022-09-24T07:02:08;13.30;99.90
53152;DHT22;39234;53.158;6.322;2022-09-24T07:04:34;13.50;99.90
53152;DHT22;39234;53.158;6.322;2022-09-24T07:07:00;13.50;99.90
53152;DHT22;39234;53.158;6.322;2022-09-24T07:09:44;13.50;99.90
53152;DHT22;39234;53.158;6.322;2022-09-24T07:12:10;13.40;99.90
53152;DHT22;39234;53.158;6.322;2022-09-24T07:14:36;15.30;99.90
53152;DHT22;39234;53.158;6.322;2022-09-24T07:17:01;13.70;99.90
53152;DHT22;39234;53.158;6.322;2022-09-24T07:19:27;13.50;99.90
53152;DHT22;39234;53.158;6.322;2022-09-24T07:21:53;13.60;99.90
53152;DHT22;39234;53.158;6.322;2022-09-24T07:24:18;15.40;99.90
53152;DHT22;39234;53.158;6.322;2022-09-24T07:26:44;13.80;99.90
53152;DHT22;39234;53.158;6.322;2022-09-24T07:29:10;13.70;99.90
53152;DHT22;39234;53.158;6.322;2022-09-24T07:31:35;14.00;99.90
53152;DHT22;39234;53.158;6.322;2022-09-24T07:34:01;14.30;99.90
53152;DHT22;39234;53.158;6.322;2022-09-24T07:36:27;14.40;99.90
53152;DHT22;39234;53.158;6.322;2022-09-24T07:38:56;14.30;99.90
53152;DHT22;39234;53.158;6.322;2022-09-24T07:41:22;15.80;99.90
53152;DHT22;39234;53.158;6.322;2022-09-24T07:43:48;14.40;99.90
53152;DHT22;39234;53.158;6.322;2022-09-24T07:46:14;14.30;99.90
53152;DHT22;39234;53.158;6.322;2022-09-24T07:48:40;14.20;99.90
53152;DHT22;39234;53.158;6.322;2022-09-24T07:51:08;14.40;99.90
53152;DHT22;39234;53.158;6.322;2022-09-24T07:53:34;14.40;99.90
53152;DHT22;39234;53.158;6.322;2022-09-24T07:56:00;14.40;99.90
53152;DHT22;39234;53.158;6.322;2022-09-24T07:58:26;14.30;99.90
53152;DHT22;39234;53.158;6.322;2022-09-24T08:00:57;12.70;99.90
53152;DHT22;39234;53.158;6.322;2022-09-24T08:03:23;14.30;99.90
53152;DHT22;39234;53.158;6.322;2022-09-24T08:05:49;14.20;99.90
53152;DHT22;39234;53.158;6.322;2022-09-24T08:08:14;14.30;99.90
53152;DHT22;39234;53.158;6.322;2022-09-24T08:10:40;14.30;99.90
53152;DHT22;39234;53.158;6.322;2022-09-24T08:13:07;14.40;99.90
53152;DHT22;39234;53.158;6.322;2022-09-24T08:15:33;14.50;99.90
53152;DHT22;39234;53.158;6.322;2022-09-24T08:18:03;16.40;99.90
53152;DHT22;39234;53.158;6.322;2022-09-24T08:20:29;14.50;99.90
53152;DHT22;39234;53.158;6.322;2022-09-24T08:23:00;14.40;99.90
53152;DHT22;39234;53.158;6.322;2022-09-24T08:25:26;14.40;99.90
53152;DHT22;39234;53.158;6.322;2022-09-24T08:27:52;14.50;99.90
53152;DHT22;39234;53.158;6.322;2022-09-24T08:30:18;14.30;99.90
53152;DHT22;39234;53.158;6.322;2022-09-24T08:32:46;14.50;99.90
53152;DHT22;39234;53.158;6.322;2022-09-24T08:35:12;15.00;99.90
53152;DHT22;39234;53.158;6.322;2022-09-24T08:37:40;14.30;99.80
53152;DHT22;39234;53.158;6.322;2022-09-24T08:40:08;14.60;99.90
53152;DHT22;39234;53.158;6.322;2022-09-24T08:42:40;14.10;99.90
53152;DHT22;39234;53.158;6.322;2022-09-24T08:45:09;14.20;99.90
53152;DHT22;39234;53.158;6.322;2022-09-24T08:48:12;14.30;99.40
53152;DHT22;39234;53.158;6.322;2022-09-24T08:50:49;15.50;97.60
53152;DHT22;39234;53.158;6.322;2022-09-24T08:56:00;14.40;97.50
53152;DHT22;39234;53.158;6.322;2022-09-24T09:09:11;14.30;95.40
53152;DHT22;39234;53.158;6.322;2022-09-24T09:11:40;14.50;93.50
53152;DHT22;39234;53.158;6.322;2022-09-24T09:14:39;14.60;96.50
53152;DHT22;39234;53.158;6.322;2022-09-24T09:19:51;14.50;98.50
53152;DHT22;39234;53.158;6.322;2022-09-24T09:22:20;12.60;99.90
53152;DHT22;39234;53.158;6.322;2022-09-24T09:24:51;14.60;99.90
53152;DHT22;39234;53.158;6.322;2022-09-24T09:27:19;14.60;99.90
53152;DHT22;39234;53.158;6.322;2022-09-24T09:29:47;14.40;99.70
53152;DHT22;39234;53.158;6.322;2022-09-24T09:35:34;14.60;97.90
53152;DHT22;39234;53.158;6.322;2022-09-24T09:38:30;14.50;99.00
53152;DHT22;39234;53.158;6.322;2022-09-24T09:41:11;14.60;99.80
53152;DHT22;39234;53.158;6.322;2022-09-24T09:43:43;14.50;99.90
53152;DHT22;39234;53.158;6.322;2022-09-24T09:46:23;14.50;99.90
53152;DHT22;39234;53.158;6.322;2022-09-24T09:48:54;14.50;99.90
53152;DHT22;39234;53.158;6.322;2022-09-24T09:51:24;14.30;99.90
53152;DHT22;39234;53.158;6.322;2022-09-24T09:54:01;14.50;99.90
53152;DHT22;39234;53.158;6.322;2022-09-24T09:56:32;14.50;99.90
53152;DHT22;39234;53.158;6.322;2022-09-24T09:59:06;14.60;99.90
53152;DHT22;39234;53.158;6.322;2022-09-24T10:01:34;14.70;99.90
53152;DHT22;39234;53.158;6.322;2022-09-24T10:04:02;14.60;96.90
53152;DHT22;39234;53.158;6.322;2022-09-24T10:06:35;14.80;95.30
53152;DHT22;39234;53.158;6.322;2022-09-24T10:09:17;14.70;94.70
53152;DHT22;39234;53.158;6.322;2022-09-24T10:11:46;14.60;92.50
53152;DHT22;39234;53.158;6.322;2022-09-24T10:14:14;14.60;95.10
53152;DHT22;39234;53.158;6.322;2022-09-24T10:16:43;14.30;97.10
53152;DHT22;39234;53.158;6.322;2022-09-24T10:19:16;14.40;97.70
53152;DHT22;39234;53.158;6.322;2022-09-24T10:21:43;14.30;97.40
53152;DHT22;39234;53.158;6.322;2022-09-24T10:24:19;14.10;95.60
53152;DHT22;39234;53.158;6.322;2022-09-24T10:26:46;14.30;98.30
53152;DHT22;39234;53.158;6.322;2022-09-24T10:29:16;14.20;98.60
53152;DHT22;39234;53.158;6.322;2022-09-24T10:32:03;14.30;99.90
53152;DHT22;39234;53.158;6.322;2022-09-24T10:34:29;14.00;99.90
53152;DHT22;39234;53.158;6.322;2022-09-24T10:37:11;16.10;99.90
53152;DHT22;39234;53.158;6.322;2022-09-24T10:39:37;14.00;99.90
53152;DHT22;39234;53.158;6.322;2022-09-24T10:42:03;14.10;99.90
53152;DHT22;39234;53.158;6.322;2022-09-24T10:44:35;14.10;99.90
53152;DHT22;39234;53.158;6.322;2022-09-24T10:47:24;14.20;99.90
53152;DHT22;39234;53.158;6.322;2022-09-24T10:53:30;14.10;99.90
53152;DHT22;39234;53.158;6.322;2022-09-24T10:56:03;14.20;99.90
53152;DHT22;39234;53.158;6.322;2022-09-24T11:01:58;14.00;99.90
53152;DHT22;39234;53.158;6.322;2022-09-24T11:07:41;13.90;99.90
53152;DHT22;39234;53.158;6.322;2022-09-24T11:18:29;15.60;99.90
53152;DHT22;39234;53.158;6.322;2022-09-24T11:26:33;13.70;99.90
53152;DHT22;39234;53.158;6.322;2022-09-24T11:29:20;13.40;99.90
53152;DHT22;39234;53.158;6.322;2022-09-24T11:32:06;13.70;99.90
53152;DHT22;39234;53.158;6.322;2022-09-24T11:40:28;13.60;99.90
53152;DHT22;39234;53.158;6.322;2022-09-24T11:45:50;13.50;99.90
53152;DHT22;39234;53.158;6.322;2022-09-24T11:48:39;13.90;99.90
53152;DHT22;39234;53.158;6.322;2022-09-24T11:51:31;13.60;99.90
53152;DHT22;39234;53.158;6.322;2022-09-24T11:57:17;13.70;99.90
53152;DHT22;39234;53.158;6.322;2022-09-24T11:59:54;15.50;99.90
53152;DHT22;39234;53.158;6.322;2022-09-24T12:02:34;13.50;99.90
53152;DHT22;39234;53.158;6.322;2022-09-24T12:08:07;13.70;99.90
53152;DHT22;39234;53.158;6.322;2022-09-24T12:10:48;13.70;99.90
53152;DHT22;39234;53.158;6.322;2022-09-24T12:15:56;13.90;99.90
53152;DHT22;39234;53.158;6.322;2022-09-24T12:18:44;13.60;99.90
53152;DHT22;39234;53.158;6.322;2022-09-24T12:21:19;13.80;99.90
53152;DHT22;39234;53.158;6.322;2022-09-24T12:23:47;16.00;99.90
53152;DHT22;39234;53.158;6.322;2022-09-24T12:26:17;13.90;99.90
53152;DHT22;39234;53.158;6.322;2022-09-24T12:29:03;14.10;99.90
53152;DHT22;39234;53.158;6.322;2022-09-24T12:34:56;13.90;99.90
53152;DHT22;39234;53.158;6.322;2022-09-24T12:37:37;13.90;99.90
53152;DHT22;39234;53.158;6.322;2022-09-24T12:40:25;13.90;99.90
53152;DHT22;39234;53.158;6.322;2022-09-24T12:42:56;14.10;99.90
53152;DHT22;39234;53.158;6.322;2022-09-24T12:45:23;14.10;99.90
53152;DHT22;39234;53.158;6.322;2022-09-24T12:47:57;14.20;99.90
53152;DHT22;39234;53.158;6.322;2022-09-24T12:50:26;14.10;99.90
53152;DHT22;39234;53.158;6.322;2022-09-24T12:52:53;14.30;99.90
53152;DHT22;39234;53.158;6.322;2022-09-24T12:55:29;14.10;99.90
53152;DHT22;39234;53.158;6.322;2022-09-24T12:58:05;14.10;99.90
53152;DHT22;39234;53.158;6.322;2022-09-24T13:02:57;13.90;99.90
53152;DHT22;39234;53.158;6.322;2022-09-24T13:10:30;13.70;99.90
53152;DHT22;39234;53.158;6.322;2022-09-24T13:12:57;15.00;99.90
53152;DHT22;39234;53.158;6.322;2022-09-24T13:15:38;13.80;99.90
53152;DHT22;39234;53.158;6.322;2022-09-24T13:18:13;13.90;99.90
53152;DHT22;39234;53.158;6.322;2022-09-24T13:20:42;13.90;99.90
53152;DHT22;39234;53.158;6.322;2022-09-24T13:23:30;13.70;99.90
53152;DHT22;39234;53.158;6.322;2022-09-24T13:25:58;14.50;99.90
53152;DHT22;39234;53.158;6.322;2022-09-24T13:28:32;13.80;99.90
53152;DHT22;39234;53.158;6.322;2022-09-24T13:32:08;13.80;99.90
53152;DHT22;39234;53.158;6.322;2022-09-24T13:36:58;15.70;99.90
53152;DHT22;39234;53.158;6.322;2022-09-24T13:44:39;13.80;99.90
53152;DHT22;39234;53.158;6.322;2022-09-24T13:50:06;13.50;99.90
53152;DHT22;39234;53.158;6.322;2022-09-24T13:52:38;13.50;99.90
53152;DHT22;39234;53.158;6.322;2022-09-24T13:55:10;14.90;99.90
53152;DHT22;39234;53.158;6.322;2022-09-24T13:57:44;12.80;99.90
53152;DHT22;39234;53.158;6.322;2022-09-24T14:02:42;13.20;99.90
53152;DHT22;39234;53.158;6.322;2022-09-24T14:05:16;12.90;99.90
53152;DHT22;39234;53.158;6.322;2022-09-24T14:07:54;12.90;99.90
53152;DHT22;39234;53.158;6.322;2022-09-24T14:10:21;12.80;99.90
53152;DHT22;39234;53.158;6.322;2022-09-24T14:13:22;13.00;99.90
53152;DHT22;39234;53.158;6.322;2022-09-24T14:16:07;12.90;99.90
53152;DHT22;39234;53.158;6.322;2022-09-24T14:18:34;13.00;99.90
53152;DHT22;39234;53.158;6.322;2022-09-24T14:21:21;13.10;99.90
53152;DHT22;39234;53.158;6.322;2022-09-24T14:24:05;13.00;99.90
53152;DHT22;39234;53.158;6.322;2022-09-24T14:29:41;13.20;99.90
53152;DHT22;39234;53.158;6.322;2022-09-24T14:32:28;13.30;99.90
53152;DHT22;39234;53.158;6.322;2022-09-24T14:34:57;13.10;99.90
53152;DHT22;39234;53.158;6.322;2022-09-24T14:37:32;13.30;99.90
53152;DHT22;39234;53.158;6.322;2022-09-24T14:40:11;13.20;99.90
53152;DHT22;39234;53.158;6.322;2022-09-24T14:42:52;15.30;99.90
53152;DHT22;39234;53.158;6.322;2022-09-24T14:45:33;13.50;99.90
53152;DHT22;39234;53.158;6.322;2022-09-24T14:48:04;13.50;99.90
53152;DHT22;39234;53.158;6.322;2022-09-24T14:53:00;13.60;99.90
53152;DHT22;39234;53.158;6.322;2022-09-24T14:55:40;13.50;99.90
53152;DHT22;39234;53.158;6.322;2022-09-24T14:58:30;13.50;99.90
53152;DHT22;39234;53.158;6.322;2022-09-24T15:01:03;13.70;99.90
53152;DHT22;39234;53.158;6.322;2022-09-24T15:03:50;13.70;99.90
53152;DHT22;39234;53.158;6.322;2022-09-24T15:06:25;13.80;99.90
53152;DHT22;39234;53.158;6.322;2022-09-24T15:08:56;13.70;99.90
53152;DHT22;39234;53.158;6.322;2022-09-24T15:11:25;13.80;99.90
53152;DHT22;39234;53.158;6.322;2022-09-24T15:16:35;13.90;99.90
53152;DHT22;39234;53.158;6.322;2022-09-24T15:21:38;13.90;99.90
53152;DHT22;39234;53.158;6.322;2022-09-24T15:24:04;14.00;99.90
53152;DHT22;39234;53.158;6.322;2022-09-24T15:26:32;14.10;99.90
53152;DHT22;39234;53.158;6.322;2022-09-24T15:28:59;13.90;99.90
53152;DHT22;39234;53.158;6.322;2022-09-24T15:31:26;14.10;99.90
53152;DHT22;39234;53.158;6.322;2022-09-24T15:33:52;14.60;99.90
53152;DHT22;39234;53.158;6.322;2022-09-24T15:36:18;13.80;99.90
53152;DHT22;39234;53.158;6.322;2022-09-24T15:38:47;13.90;99.90
53152;DHT22;39234;53.158;6.322;2022-09-24T15:41:12;14.20;99.90
53152;DHT22;39234;53.158;6.322;2022-09-24T15:43:38;14.10;99.90
53152;DHT22;39234;53.158;6.322;2022-09-24T15:46:04;14.20;99.90
53152;DHT22;39234;53.158;6.322;2022-09-24T15:48:30;14.40;95.00
53152;DHT22;39234;53.158;6.322;2022-09-24T15:50:55;14.50;96.70
53152;DHT22;39234;53.158;6.322;2022-09-24T15:53:24;14.50;91.60
53152;DHT22;39234;53.158;6.322;2022-09-24T15:55:55;14.50;73.90
53152;DHT22;39234;53.158;6.322;2022-09-24T15:58:22;14.40;70.90
53152;DHT22;39234;53.158;6.322;2022-09-24T16:00:48;14.60;63.10
53152;DHT22;39234;53.158;6.322;2022-09-24T16:03:27;14.50;56.30
53152;DHT22;39234;53.158;6.322;2022-09-24T16:05:54;14.50;57.70
53152;DHT22;39234;53.158;6.322;2022-09-24T16:08:20;14.40;53.70
53152;DHT22;39234;53.158;6.322;2022-09-24T16:10:46;14.30;54.50
53152;DHT22;39234;53.158;6.322;2022-09-24T16:13:12;14.50;47.80
53152;DHT22;39234;53.158;6.322;2022-09-24T16:15:39;14.30;39.30
53152;DHT22;39234;53.158;6.322;2022-09-24T16:18:05;14.10;46.20
53152;DHT22;39234;53.158;6.322;2022-09-24T16:20:31;14.20;40.50
53152;DHT22;39234;53.158;6.322;2022-09-24T16:22:57;14.50;51.70
53152;DHT22;39234;53.158;6.322;2022-09-24T16:25:23;14.30;54.20
53152;DHT22;39234;53.158;6.322;2022-09-24T16:27:49;14.00;56.40
53152;DHT22;39234;53.158;6.322;2022-09-24T16:30:16;14.20;45.90
53152;DHT22;39234;53.158;6.322;2022-09-24T16:32:42;14.10;44.80
53152;DHT22;39234;53.158;6.322;2022-09-24T16:35:08;14.20;37.90
53152;DHT22;39234;53.158;6.322;2022-09-24T16:37:36;14.10;40.00
53152;DHT22;39234;53.158;6.322;2022-09-24T16:40:02;15.40;33.50
53152;DHT22;39234;53.158;6.322;2022-09-24T16:42:28;13.90;39.70
53152;DHT22;39234;53.158;6.322;2022-09-24T16:44:53;13.90;41.00
53152;DHT22;39234;53.158;6.322;2022-09-24T16:47:19;14.00;48.20
53152;DHT22;39234;53.158;6.322;2022-09-24T16:49:46;13.90;58.90
53152;DHT22;39234;53.158;6.322;2022-09-24T16:52:12;14.00;54.20
53152;DHT22;39234;53.158;6.322;2022-09-24T16:54:38;13.80;59.20
53152;DHT22;39234;53.158;6.322;2022-09-24T16:57:04;13.70;64.40
53152;DHT22;39234;53.158;6.322;2022-09-24T16:59:31;13.60;67.50
53152;DHT22;39234;53.158;6.322;2022-09-24T17:01:57;13.50;70.90
53152;DHT22;39234;53.158;6.322;2022-09-24T17:04:24;13.60;68.80
53152;DHT22;39234;53.158;6.322;2022-09-24T17:06:55;13.40;69.10
53152;DHT22;39234;53.158;6.322;2022-09-24T17:09:21;13.40;72.60
53152;DHT22;39234;53.158;6.322;2022-09-24T17:12:06;13.40;76.60
53152;DHT22;39234;53.158;6.322;2022-09-24T17:14:32;13.10;83.70
53152;DHT22;39234;53.158;6.322;2022-09-24T17:17:00;13.00;90.70
53152;DHT22;39234;53.158;6.322;2022-09-24T17:19:26;12.90;91.20
53152;DHT22;39234;53.158;6.322;2022-09-24T17:21:51;12.90;93.10
53152;DHT22;39234;53.158;6.322;2022-09-24T17:24:18;12.70;94.60
53152;DHT22;39234;53.158;6.322;2022-09-24T17:26:45;12.80;96.30
53152;DHT22;39234;53.158;6.322;2022-09-24T17:29:11;12.50;96.70
53152;DHT22;39234;53.158;6.322;2022-09-24T17:31:37;12.40;97.50
53152;DHT22;39234;53.158;6.322;2022-09-24T17:34:05;12.20;98.10
53152;DHT22;39234;53.158;6.322;2022-09-24T17:36:34;12.40;97.30
53152;DHT22;39234;53.158;6.322;2022-09-24T17:39:00;12.00;97.70
53152;DHT22;39234;53.158;6.322;2022-09-24T17:41:27;12.10;97.80
53152;DHT22;39234;53.158;6.322;2022-09-24T17:43:54;12.10;98.60
53152;DHT22;39234;53.158;6.322;2022-09-24T17:46:24;11.90;98.70